Time;durP1;ratioP1;P1;durP2;ratioP2;P2;SDS_P1;SDS_P2;PMS_P1;PMS_P2;Temp;Humidity;BMP_temperature;BMP_pressure;BME280_temperature;BME280_humidity;BME280_pressure;Samples;Min_cycle;Max_cycle;Signal;HPM_P1;HPM_P2
2023/03/04 00:02:18;;;;;;;13.40;1.92;;;6.10;99.90;;;;;;5052962;28;20045;-70
2023/03/04 00:04:44;;;;;;;12.05;1.52;;;6.10;99.90;;;;;;5043254;28;20037;-70
2023/03/04 00:07:09;;;;;;;9.82;1.17;;;6.00;99.90;;;;;;5053229;28;20367;-69
2023/03/04 00:09:35;;;;;;;13.07;2.15;;;6.10;99.90;;;;;;5041973;28;20098;-68
2023/03/04 00:12:01;;;;;;;8.43;1.45;;;6.10;99.90;;;;;;5040184;28;20148;-68
2023/03/04 00:14:26;;;;;;;13.88;2.40;;;6.00;99.90;;;;;;5039028;28;20079;-67
2023/03/04 00:16:52;;;;;;;16.60;1.80;;;6.10;99.90;;;;;;5034389;28;20084;-68
2023/03/04 00:19:17;;;;;;;14.63;2.03;;;6.10;99.90;;;;;;5037750;28;20071;-68
2023/03/04 00:21:43;;;;;;;8.38;1.73;;;6.10;99.90;;;;;;5033996;28;20115;-67
2023/03/04 00:24:09;;;;;;;6.82;1.60;;;6.10;99.90;;;;;;5032395;28;20091;-69
2023/03/04 00:26:34;;;;;;;11.57;2.10;;;6.10;99.90;;;;;;5036156;28;20056;-69
2023/03/04 00:29:00;;;;;;;13.55;1.25;;;6.00;99.90;;;;;;5034123;28;20038;-70
2023/03/04 00:31:26;;;;;;;11.63;2.60;;;6.00;99.90;;;;;;5039142;28;20036;-69
2023/03/04 00:33:52;;;;;;;11.82;1.80;;;6.00;99.90;;;;;;5040669;28;20044;-70
2023/03/04 00:36:18;;;;;;;9.05;1.48;;;6.00;99.90;;;;;;5051759;28;20411;-70
2023/03/04 00:38:43;;;;;;;10.82;1.60;;;6.00;99.90;;;;;;5038087;28;20029;-67
2023/03/04 00:41:09;;;;;;;8.40;1.83;;;6.00;99.90;;;;;;5034737;28;20393;-68
2023/03/04 00:43:34;;;;;;;12.75;1.88;;;6.10;99.90;;;;;;5040062;28;20049;-67
2023/03/04 00:46:00;;;;;;;10.57;2.25;;;6.10;99.90;;;;;;5044427;28;20043;-71
2023/03/04 00:48:26;;;;;;;6.07;1.67;;;6.10;99.90;;;;;;5058588;28;20049;-71
2023/03/04 00:50:52;;;;;;;12.45;2.10;;;6.00;99.90;;;;;;5042307;28;20047;-69
2023/03/04 00:53:18;;;;;;;12.38;1.63;;;6.00;99.90;;;;;;5042329;28;20056;-70
2023/03/04 00:55:44;;;;;;;16.45;1.80;;;6.00;99.90;;;;;;5040635;28;20099;-71
2023/03/04 00:58:10;;;;;;;8.80;1.80;;;6.00;99.90;;;;;;5056289;28;20041;-69
2023/03/04 01:00:37;;;;;;;6.90;1.25;;;6.00;99.90;;;;;;5042603;28;20033;-69
2023/03/04 01:03:03;;;;;;;13.63;1.85;;;6.00;99.90;;;;;;5037133;28;20369;-67
2023/03/04 01:05:28;;;;;;;7.25;1.33;;;6.00;99.90;;;;;;5040485;28;20673;-70
2023/03/04 01:07:54;;;;;;;16.80;2.42;;;6.00;99.90;;;;;;5051706;28;20384;-68
2023/03/04 01:10:19;;;;;;;12.88;2.22;;;6.00;99.90;;;;;;5034949;28;20041;-70
2023/03/04 01:12:45;;;;;;;9.65;2.13;;;5.90;99.90;;;;;;5040516;28;20068;-67
2023/03/04 01:15:12;;;;;;;12.38;2.00;;;5.90;99.90;;;;;;5055232;28;20582;-69
2023/03/04 01:17:38;;;;;;;15.50;2.60;;;5.90;99.90;;;;;;5034736;28;20046;-69
2023/03/04 01:20:06;;;;;;;10.65;2.40;;;5.90;99.90;;;;;;5058564;28;20357;-68
2023/03/04 01:22:32;;;;;;;8.00;2.05;;;6.00;99.90;;;;;;5035919;28;20094;-69
2023/03/04 01:24:57;;;;;;;15.38;2.30;;;6.00;99.90;;;;;;5041510;28;20036;-67
2023/03/04 01:27:23;;;;;;;14.30;1.88;;;5.90;99.90;;;;;;5035952;28;20063;-70
2023/03/04 01:29:48;;;;;;;8.13;1.92;;;5.90;99.90;;;;;;5040352;28;20103;-69
2023/03/04 01:32:14;;;;;;;13.68;2.13;;;6.00;99.90;;;;;;5038679;28;20041;-69
2023/03/04 01:34:40;;;;;;;14.55;1.98;;;6.00;99.90;;;;;;5038487;28;20045;-67
2023/03/04 01:37:05;;;;;;;13.13;2.28;;;6.00;99.90;;;;;;5035642;28;20033;-68
2023/03/04 01:39:31;;;;;;;10.98;2.40;;;5.90;99.90;;;;;;5036734;28;20037;-68
2023/03/04 01:41:57;;;;;;;13.80;2.50;;;5.90;99.90;;;;;;5036716;28;20127;-70
2023/03/04 01:44:22;;;;;;;13.32;2.42;;;5.90;99.90;;;;;;5041267;28;20052;-70
2023/03/04 01:46:52;;;;;;;8.10;1.75;;;5.90;99.90;;;;;;5041259;28;20090;-69
2023/03/04 01:49:18;;;;;;;8.30;1.75;;;5.90;99.90;;;;;;5040306;28;20059;-68
2023/03/04 01:51:51;;;;;;;8.32;1.30;;;5.90;99.90;;;;;;5038186;28;20049;-70
2023/03/04 01:54:17;;;;;;;13.13;1.98;;;5.90;99.90;;;;;;5044294;28;20040;-72
2023/03/04 01:56:45;;;;;;;3.88;1.27;;;5.90;99.90;;;;;;5037507;28;20135;-69
2023/03/04 01:59:14;;;;;;;10.25;1.98;;;5.90;99.90;;;;;;5036430;28;20452;-71
2023/03/04 02:01:43;;;;;;;6.60;1.15;;;5.90;99.90;;;;;;5038044;28;20041;-69
2023/03/04 02:04:10;;;;;;;9.30;1.90;;;5.90;99.90;;;;;;5040373;28;20046;-67
2023/03/04 02:06:38;;;;;;;6.50;1.20;;;5.90;99.90;;;;;;5041794;28;20053;-69
2023/03/04 02:09:05;;;;;;;10.52;1.42;;;5.90;99.90;;;;;;5053515;28;20131;-72
2023/03/04 02:11:31;;;;;;;11.85;2.13;;;5.90;99.90;;;;;;5035481;28;20183;-68
2023/03/04 02:13:57;;;;;;;9.48;1.70;;;5.90;99.90;;;;;;5041845;28;20071;-71
2023/03/04 02:16:23;;;;;;;10.50;2.13;;;5.90;99.90;;;;;;5037116;28;20119;-69
2023/03/04 02:18:49;;;;;;;7.82;1.60;;;5.80;99.90;;;;;;5037417;28;20069;-68
2023/03/04 02:21:22;;;;;;;11.30;2.47;;;5.90;99.90;;;;;;5035215;28;20036;-69
2023/03/04 02:23:57;;;;;;;10.25;1.50;;;5.90;99.90;;;;;;5054337;28;20645;-67
2023/03/04 02:26:25;;;;;;;9.90;1.77;;;5.80;99.90;;;;;;5036659;28;20049;-70
2023/03/04 02:28:53;;;;;;;18.33;2.42;;;5.80;99.90;;;;;;5052204;28;20095;-68
2023/03/04 02:31:31;;;;;;;7.65;2.13;;;5.80;99.90;;;;;;5034477;28;20044;-67
2023/03/04 02:34:00;;;;;;;12.05;2.20;;;5.70;99.90;;;;;;5034197;28;20063;-70
2023/03/04 02:36:27;;;;;;;14.25;2.03;;;5.70;99.90;;;;;;5031976;28;20046;-69
2023/03/04 02:38:54;;;;;;;13.32;1.50;;;5.70;99.90;;;;;;5033838;28;20076;-71
2023/03/04 02:41:23;;;;;;;10.70;1.73;;;5.70;99.90;;;;;;5009777;28;20041;-69
2023/03/04 02:43:52;;;;;;;13.43;2.05;;;5.70;99.90;;;;;;5037061;28;20075;-68
2023/03/04 02:46:18;;;;;;;12.82;1.98;;;5.70;99.90;;;;;;5035945;28;20044;-67
2023/03/04 02:48:44;;;;;;;7.03;1.20;;;5.70;99.90;;;;;;5033697;28;20051;-68
2023/03/04 02:51:09;;;;;;;6.15;1.38;;;5.70;99.90;;;;;;5034760;28;20053;-68
2023/03/04 02:53:35;;;;;;;9.90;1.65;;;5.80;99.90;;;;;;5033631;28;20112;-71
2023/03/04 02:56:01;;;;;;;8.55;1.35;;;5.80;99.90;;;;;;5035346;28;20452;-68
2023/03/04 02:58:26;;;;;;;12.80;1.50;;;5.80;99.90;;;;;;5051768;28;20969;-68
2023/03/04 03:00:52;;;;;;;7.68;1.70;;;5.80;99.90;;;;;;5028760;28;20045;-68
2023/03/04 03:03:17;;;;;;;11.52;1.60;;;5.80;99.90;;;;;;5033146;28;20123;-68
2023/03/04 03:05:43;;;;;;;8.38;1.25;;;5.80;99.90;;;;;;5033775;28;20041;-70
2023/03/04 03:08:09;;;;;;;5.80;1.08;;;5.70;99.90;;;;;;5034050;28;20045;-70
2023/03/04 03:10:35;;;;;;;8.77;1.10;;;5.80;99.90;;;;;;5035719;28;20106;-69
2023/03/04 03:13:01;;;;;;;12.70;1.58;;;5.80;99.90;;;;;;5055494;28;20053;-69
2023/03/04 03:15:26;;;;;;;12.45;1.70;;;5.80;99.90;;;;;;5039117;28;20033;-69
2023/03/04 03:17:52;;;;;;;10.93;1.50;;;5.80;99.90;;;;;;5035135;28;20041;-70
2023/03/04 03:20:18;;;;;;;8.57;1.33;;;5.80;99.90;;;;;;5037031;28;20392;-71
2023/03/04 03:22:44;;;;;;;10.73;1.55;;;5.80;99.90;;;;;;5034608;28;20124;-66
2023/03/04 03:25:11;;;;;;;4.32;0.93;;;5.80;99.90;;;;;;5042085;28;20129;-67
2023/03/04 03:27:37;;;;;;;13.15;1.80;;;5.80;99.90;;;;;;5040818;28;20476;-68
2023/03/04 03:30:04;;;;;;;5.60;1.17;;;5.80;99.90;;;;;;5042009;28;20045;-69
2023/03/04 03:32:29;;;;;;;10.98;1.63;;;5.80;99.90;;;;;;5051850;28;20045;-67
2023/03/04 03:34:55;;;;;;;10.43;1.35;;;5.80;99.90;;;;;;5034670;28;20056;-70
2023/03/04 03:37:20;;;;;;;12.10;2.25;;;5.70;99.90;;;;;;5036421;28;20041;-68
2023/03/04 03:39:46;;;;;;;11.93;1.60;;;5.70;99.90;;;;;;5065407;28;20029;-71
2023/03/04 03:42:11;;;;;;;12.88;1.92;;;5.70;99.90;;;;;;5039104;28;20033;-69
2023/03/04 03:44:37;;;;;;;10.68;2.05;;;5.70;99.90;;;;;;5032096;28;20041;-69
2023/03/04 03:47:03;;;;;;;7.13;1.60;;;5.70;99.90;;;;;;5045091;28;20045;-69
2023/03/04 03:49:39;;;;;;;11.70;1.65;;;5.70;99.90;;;;;;5042906;28;20042;-69
2023/03/04 03:52:07;;;;;;;11.23;1.27;;;5.70;99.90;;;;;;5061464;28;20049;-70
2023/03/04 03:54:32;;;;;;;12.77;1.98;;;5.70;99.90;;;;;;5045897;28;20067;-68
2023/03/04 03:56:58;;;;;;;10.32;1.60;;;5.70;99.90;;;;;;5040089;28;20047;-70
2023/03/04 03:59:24;;;;;;;11.18;2.15;;;5.70;99.90;;;;;;5041421;28;20041;-66
2023/03/04 04:01:50;;;;;;;6.47;1.50;;;5.70;99.90;;;;;;5036922;28;20335;-68
2023/03/04 04:04:15;;;;;;;9.55;1.70;;;5.70;99.90;;;;;;5043384;28;20033;-68
2023/03/04 04:06:41;;;;;;;8.80;1.90;;;5.70;99.90;;;;;;5040890;28;20044;-67
2023/03/04 04:09:07;;;;;;;10.02;1.65;;;5.70;99.90;;;;;;5039362;28;20380;-67
2023/03/04 04:11:32;;;;;;;11.02;2.08;;;5.70;99.90;;;;;;5037974;28;20103;-68
2023/03/04 04:13:58;;;;;;;11.77;2.00;;;5.70;99.90;;;;;;5053588;28;20495;-69
2023/03/04 04:16:23;;;;;;;11.52;2.03;;;5.60;99.90;;;;;;5053515;28;20041;-66
2023/03/04 04:18:49;;;;;;;7.10;1.52;;;5.60;99.90;;;;;;5039978;28;20521;-67
2023/03/04 04:21:15;;;;;;;8.60;2.10;;;5.60;99.90;;;;;;5040207;28;20056;-67
2023/03/04 04:23:40;;;;;;;13.15;1.80;;;5.50;99.90;;;;;;5037532;28;20044;-67
2023/03/04 04:26:06;;;;;;;12.85;2.00;;;5.50;99.90;;;;;;5038303;28;20041;-68
2023/03/04 04:28:32;;;;;;;14.95;2.72;;;5.50;99.90;;;;;;5061830;28;20045;-67
2023/03/04 04:30:57;;;;;;;10.93;1.98;;;5.50;99.90;;;;;;5035605;28;20041;-68
2023/03/04 04:33:23;;;;;;;11.27;1.77;;;5.50;99.90;;;;;;5044039;28;20419;-67
2023/03/04 04:35:48;;;;;;;10.30;1.50;;;5.50;99.90;;;;;;5035282;28;20048;-67
2023/03/04 04:38:14;;;;;;;7.93;1.88;;;5.50;99.90;;;;;;5037757;28;20033;-68
2023/03/04 04:40:41;;;;;;;12.13;2.10;;;5.50;99.90;;;;;;5056380;28;20458;-69
2023/03/04 04:43:07;;;;;;;10.77;1.42;;;5.50;99.90;;;;;;5031890;28;20140;-68
2023/03/04 04:45:33;;;;;;;7.88;1.75;;;5.50;99.90;;;;;;5037355;28;20584;-67
2023/03/04 04:47:59;;;;;;;9.07;1.92;;;5.50;99.90;;;;;;5041024;28;20051;-68
2023/03/04 04:50:25;;;;;;;11.15;2.08;;;5.50;99.90;;;;;;5037212;28;20049;-68
2023/03/04 04:52:50;;;;;;;9.18;1.60;;;5.50;99.90;;;;;;5035631;28;20037;-67
2023/03/04 04:55:16;;;;;;;11.57;1.63;;;5.50;99.90;;;;;;5044842;28;20111;-67
2023/03/04 04:57:42;;;;;;;10.63;1.92;;;5.50;99.90;;;;;;5038252;28;20033;-67
2023/03/04 05:00:09;;;;;;;11.00;1.77;;;5.60;99.90;;;;;;5045016;28;20280;-67
2023/03/04 05:02:36;;;;;;;14.27;2.00;;;5.50;99.90;;;;;;5037376;28;20049;-68
2023/03/04 05:05:06;;;;;;;8.48;1.73;;;5.60;99.90;;;;;;5040335;28;20123;-68
2023/03/04 05:07:32;;;;;;;8.10;1.52;;;5.50;99.90;;;;;;5036762;28;20037;-67
2023/03/04 05:09:58;;;;;;;12.60;2.30;;;5.50;99.90;;;;;;5035196;28;20530;-67
2023/03/04 05:12:23;;;;;;;10.07;1.90;;;5.50;99.90;;;;;;5041643;28;20064;-67
2023/03/04 05:14:49;;;;;;;6.68;1.30;;;5.50;99.90;;;;;;5040293;28;20068;-67
2023/03/04 05:17:15;;;;;;;7.28;1.83;;;5.40;99.90;;;;;;5037810;28;20029;-67
2023/03/04 05:19:40;;;;;;;7.30;1.83;;;5.40;99.90;;;;;;5038024;28;20115;-67
2023/03/04 05:22:06;;;;;;;12.02;2.22;;;5.40;99.90;;;;;;5035257;28;20472;-67
2023/03/04 05:24:33;;;;;;;9.65;1.80;;;5.40;99.90;;;;;;5040190;28;20036;-68
2023/03/04 05:26:59;;;;;;;11.52;2.28;;;5.50;99.90;;;;;;5035875;28;20049;-67
2023/03/04 05:29:25;;;;;;;12.27;1.95;;;5.40;99.90;;;;;;5057956;28;20041;-67
2023/03/04 05:31:50;;;;;;;9.15;2.35;;;5.40;99.90;;;;;;5037122;28;20454;-67
2023/03/04 05:34:16;;;;;;;11.55;2.47;;;5.40;99.90;;;;;;5052976;28;20502;-68
2023/03/04 05:36:41;;;;;;;7.28;2.00;;;5.40;99.90;;;;;;5036172;28;20038;-67
2023/03/04 05:39:07;;;;;;;8.48;1.63;;;5.40;99.90;;;;;;5035806;28;20071;-68
2023/03/04 05:41:32;;;;;;;6.18;1.60;;;5.50;99.90;;;;;;5034755;28;20366;-69
2023/03/04 05:43:58;;;;;;;12.55;1.75;;;5.40;99.90;;;;;;5033864;28;20136;-70
2023/03/04 05:46:24;;;;;;;7.20;1.40;;;5.40;99.90;;;;;;5035135;28;20091;-70
2023/03/04 05:48:51;;;;;;;9.48;2.05;;;5.40;99.90;;;;;;5039200;28;20072;-71
2023/03/04 05:51:18;;;;;;;7.10;1.38;;;5.40;99.90;;;;;;5029661;28;20515;-68
2023/03/04 05:53:43;;;;;;;5.28;1.27;;;5.40;99.90;;;;;;5034190;28;20106;-71
2023/03/04 05:56:11;;;;;;;7.90;1.50;;;5.50;99.90;;;;;;5034625;28;20029;-71
2023/03/04 05:58:37;;;;;;;10.18;1.80;;;5.50;99.90;;;;;;5032733;28;20044;-69
2023/03/04 06:01:03;;;;;;;8.07;1.50;;;5.60;99.90;;;;;;5030740;28;20543;-70
2023/03/04 06:03:29;;;;;;;2.70;0.98;;;5.50;99.90;;;;;;5024862;28;20076;-69
2023/03/04 06:05:55;;;;;;;7.85;1.80;;;5.40;99.90;;;;;;5051718;28;20084;-68
2023/03/04 06:08:20;;;;;;;4.95;1.20;;;5.40;99.90;;;;;;5025658;28;20046;-69
2023/03/04 06:10:46;;;;;;;8.73;1.65;;;5.30;99.90;;;;;;5035337;28;20053;-69
2023/03/04 06:13:12;;;;;;;5.75;2.00;;;5.20;99.90;;;;;;5032979;28;20559;-71
2023/03/04 06:15:39;;;;;;;7.32;1.70;;;5.20;99.90;;;;;;5033417;28;20029;-70
2023/03/04 06:18:05;;;;;;;8.90;2.00;;;5.10;99.90;;;;;;5033026;28;20092;-67
2023/03/04 06:20:31;;;;;;;7.30;1.80;;;5.00;99.90;;;;;;5048985;28;20399;-67
2023/03/04 06:22:57;;;;;;;10.95;2.00;;;4.90;99.90;;;;;;5046589;28;20052;-69
2023/03/04 06:25:23;;;;;;;8.07;1.73;;;5.00;99.90;;;;;;5050117;28;20063;-67
2023/03/04 06:27:49;;;;;;;7.95;1.75;;;5.00;99.90;;;;;;5041082;28;20049;-68
2023/03/04 06:30:14;;;;;;;8.65;1.60;;;5.00;99.90;;;;;;5051961;28;20101;-67
2023/03/04 06:32:43;;;;;;;9.18;1.95;;;4.90;99.90;;;;;;5034463;28;20446;-68
2023/03/04 06:35:12;;;;;;;5.47;1.73;;;4.90;99.90;;;;;;5034610;28;20099;-67
2023/03/04 06:37:39;;;;;;;8.18;1.73;;;5.00;99.90;;;;;;5038573;28;20363;-67
2023/03/04 06:40:06;;;;;;;11.57;1.98;;;5.00;99.90;;;;;;5037010;28;20033;-67
2023/03/04 06:42:32;;;;;;;8.77;1.98;;;5.00;99.90;;;;;;5047160;28;20076;-68
2023/03/04 06:44:58;;;;;;;9.93;2.20;;;5.00;99.90;;;;;;5048340;28;20037;-68
2023/03/04 06:47:23;;;;;;;11.05;2.10;;;5.00;99.90;;;;;;5035300;28;20092;-68
2023/03/04 06:49:49;;;;;;;10.68;2.15;;;5.00;99.90;;;;;;5036175;28;20129;-67
2023/03/04 06:52:15;;;;;;;7.85;1.70;;;5.00;99.90;;;;;;5036426;28;20680;-69
2023/03/04 06:54:40;;;;;;;8.75;1.90;;;5.00;99.90;;;;;;5037565;28;20048;-69
2023/03/04 06:57:06;;;;;;;8.07;1.88;;;5.10;99.90;;;;;;5033047;28;20095;-70
2023/03/04 06:59:33;;;;;;;7.63;1.83;;;5.20;99.90;;;;;;5053284;28;20029;-71
2023/03/04 07:01:58;;;;;;;5.50;1.50;;;5.20;99.90;;;;;;5034141;28;20029;-67
2023/03/04 07:04:24;;;;;;;8.80;2.17;;;5.20;99.90;;;;;;5041332;28;20063;-68
2023/03/04 07:06:50;;;;;;;5.35;1.60;;;5.20;99.90;;;;;;5039302;28;20037;-69
2023/03/04 07:09:25;;;;;;;6.25;1.08;;;5.20;99.90;;;;;;5035636;28;20037;-71
2023/03/04 07:11:50;;;;;;;9.27;2.00;;;5.30;99.90;;;;;;5047976;28;20463;-71
2023/03/04 07:14:16;;;;;;;6.25;1.40;;;5.40;99.90;;;;;;5049260;28;20052;-73
2023/03/04 07:16:42;;;;;;;7.65;1.40;;;5.40;99.90;;;;;;5051176;28;20033;-71
2023/03/04 07:19:07;;;;;;;7.18;1.33;;;5.40;99.90;;;;;;5050308;28;20037;-72
2023/03/04 07:21:33;;;;;;;4.85;0.95;;;5.50;99.90;;;;;;5039511;28;20112;-72
2023/03/04 07:23:58;;;;;;;4.32;1.25;;;5.60;99.90;;;;;;5046878;28;20041;-71
2023/03/04 07:26:24;;;;;;;3.33;0.57;;;5.60;99.90;;;;;;5069449;28;20445;-72
2023/03/04 07:28:51;;;;;;;5.88;1.13;;;5.70;99.90;;;;;;5050674;28;20075;-71
2023/03/04 07:31:28;;;;;;;5.45;1.30;;;5.70;99.90;;;;;;5045406;28;20053;-70
2023/03/04 07:34:03;;;;;;;3.15;1.20;;;5.70;99.90;;;;;;5046173;28;20051;-71
2023/03/04 07:36:29;;;;;;;4.47;0.98;;;5.90;99.90;;;;;;5049796;28;20078;-69
2023/03/04 07:38:55;;;;;;;4.55;1.10;;;5.90;99.90;;;;;;5047359;28;20060;-70
2023/03/04 07:41:23;;;;;;;6.35;1.10;;;5.90;99.90;;;;;;5047346;28;20452;-72
2023/03/04 07:43:49;;;;;;;8.20;1.63;;;5.90;99.90;;;;;;5041101;28;20645;-68
2023/03/04 07:46:16;;;;;;;9.13;1.70;;;5.90;99.90;;;;;;5047086;28;20045;-68
2023/03/04 07:48:42;;;;;;;8.85;1.60;;;5.90;99.90;;;;;;5049017;28;20045;-70
2023/03/04 07:51:07;;;;;;;3.67;1.40;;;5.80;99.90;;;;;;5049115;28;20029;-68
2023/03/04 07:53:34;;;;;;;4.70;1.27;;;5.90;99.90;;;;;;5043530;28;20052;-67
2023/03/04 07:56:00;;;;;;;5.80;1.35;;;6.00;99.90;;;;;;5050287;28;20404;-68
2023/03/04 07:58:25;;;;;;;6.10;0.98;;;6.00;99.90;;;;;;5031679;28;20043;-69
2023/03/04 08:00:51;;;;;;;7.85;1.40;;;6.10;99.90;;;;;;5045025;28;20388;-69
2023/03/04 08:03:17;;;;;;;9.48;1.73;;;6.10;99.90;;;;;;5031521;28;20041;-69
2023/03/04 08:05:42;;;;;;;5.47;1.40;;;6.10;99.90;;;;;;5056394;28;20044;-68
2023/03/04 08:08:08;;;;;;;2.72;1.17;;;6.10;99.90;;;;;;5037813;28;20178;-70
2023/03/04 08:10:35;;;;;;;5.78;1.27;;;6.20;99.90;;;;;;5038216;28;20048;-73
2023/03/04 08:13:00;;;;;;;10.38;1.50;;;6.20;99.90;;;;;;5041730;28;20492;-70
2023/03/04 08:15:26;;;;;;;3.95;1.05;;;6.20;99.90;;;;;;5034943;28;20041;-70
2023/03/04 08:17:52;;;;;;;7.15;1.38;;;6.30;99.90;;;;;;5036608;28;20037;-71
2023/03/04 08:20:18;;;;;;;2.58;0.80;;;6.40;99.90;;;;;;5039536;28;20044;-75
2023/03/04 08:22:43;;;;;;;7.82;1.15;;;6.30;99.90;;;;;;5056034;28;20060;-74
2023/03/04 08:25:09;;;;;;;7.28;1.25;;;6.40;99.90;;;;;;5049114;28;20040;-74
2023/03/04 08:27:36;;;;;;;3.67;0.88;;;6.30;99.90;;;;;;5048063;28;20032;-70
2023/03/04 08:30:03;;;;;;;6.32;0.98;;;6.30;99.90;;;;;;5034605;28;20480;-71
2023/03/04 08:32:29;;;;;;;2.20;0.80;;;6.40;99.90;;;;;;5042045;28;21194;-73
2023/03/04 08:34:55;;;;;;;3.08;0.98;;;6.30;99.90;;;;;;5030549;28;20408;-73
2023/03/04 08:37:21;;;;;;;4.25;1.00;;;6.40;99.90;;;;;;5046357;28;20496;-71
2023/03/04 08:39:47;;;;;;;3.45;1.00;;;6.40;99.90;;;;;;5065050;28;20048;-72
2023/03/04 08:42:12;;;;;;;3.17;1.38;;;6.50;99.90;;;;;;5040676;28;20029;-75
2023/03/04 08:44:38;;;;;;;6.55;1.25;;;6.50;99.90;;;;;;5042536;28;20037;-70
2023/03/04 08:47:04;;;;;;;2.38;1.08;;;6.70;99.90;;;;;;5039285;28;20069;-70
2023/03/04 08:49:30;;;;;;;6.85;1.58;;;6.70;99.90;;;;;;5045541;28;20066;-71
2023/03/04 08:51:55;;;;;;;2.20;0.70;;;6.80;99.90;;;;;;5025356;28;20053;-72
2023/03/04 08:54:21;;;;;;;4.30;1.17;;;6.80;99.90;;;;;;5030921;28;20095;-76
2023/03/04 08:56:46;;;;;;;6.50;1.50;;;6.90;99.90;;;;;;5041744;28;20369;-69
2023/03/04 08:59:12;;;;;;;5.75;1.40;;;6.90;99.90;;;;;;5042115;28;20040;-75
2023/03/04 09:01:38;;;;;;;5.90;1.35;;;6.90;99.90;;;;;;5043181;28;20033;-75
2023/03/04 09:04:03;;;;;;;5.40;1.25;;;7.00;99.90;;;;;;5038493;28;20132;-71
2023/03/04 09:06:29;;;;;;;7.65;1.38;;;7.10;99.90;;;;;;5051585;28;20055;-75
2023/03/04 09:08:55;;;;;;;6.05;1.10;;;7.10;99.90;;;;;;5042597;28;20029;-71
2023/03/04 09:11:20;;;;;;;6.15;1.00;;;7.10;99.90;;;;;;5050979;28;20044;-72
2023/03/04 09:13:46;;;;;;;5.05;1.40;;;7.20;99.90;;;;;;5044269;28;20090;-72
2023/03/04 09:16:13;;;;;;;9.63;1.20;;;7.30;99.90;;;;;;5051299;28;20032;-70
2023/03/04 09:18:40;;;;;;;7.15;1.35;;;7.40;99.90;;;;;;5043202;28;20041;-73
2023/03/04 09:21:07;;;;;;;6.88;1.20;;;7.50;99.90;;;;;;5047052;28;20466;-69
2023/03/04 09:23:33;;;;;;;3.33;1.20;;;7.50;99.90;;;;;;5041341;28;20963;-68
2023/03/04 09:25:59;;;;;;;7.97;1.70;;;7.40;99.90;;;;;;5047883;28;20037;-68
2023/03/04 09:28:25;;;;;;;4.68;1.02;;;7.40;99.90;;;;;;5041245;28;20041;-67
2023/03/04 09:30:50;;;;;;;9.30;1.90;;;7.40;99.90;;;;;;5050231;28;20560;-67
2023/03/04 09:33:17;;;;;;;10.93;1.80;;;7.40;99.90;;;;;;5046929;28;20040;-68
2023/03/04 09:35:43;;;;;;;9.95;1.52;;;7.40;99.90;;;;;;5047212;28;20116;-68
2023/03/04 09:38:09;;;;;;;8.38;2.15;;;7.30;99.90;;;;;;5039734;28;20529;-66
2023/03/04 09:40:47;;;;;;;9.68;1.50;;;7.30;99.90;;;;;;5049908;28;20041;-69
2023/03/04 09:43:28;;;;;;;5.75;1.55;;;7.30;99.90;;;;;;5046710;28;20047;-68
2023/03/04 09:45:56;;;;;;;8.95;1.55;;;7.40;99.90;;;;;;5059331;28;20037;-67
2023/03/04 09:48:26;;;;;;;7.78;1.30;;;7.50;99.90;;;;;;5048605;28;20033;-69
2023/03/04 09:51:10;;;;;;;13.13;2.17;;;7.50;99.90;;;;;;5041765;28;20049;-66
2023/03/04 09:53:44;;;;;;;9.45;1.83;;;7.60;99.90;;;;;;5035875;28;20044;-70
2023/03/04 09:56:11;;;;;;;12.70;1.85;;;7.60;99.90;;;;;;5048837;28;20037;-66
2023/03/04 09:58:49;;;;;;;8.25;1.25;;;7.60;99.90;;;;;;5044640;28;20045;-69
2023/03/04 10:01:40;;;;;;;9.57;1.92;;;7.60;99.90;;;;;;5038824;28;21699;-68
2023/03/04 10:04:39;;;;;;;7.55;1.13;;;7.60;99.90;;;;;;5033798;28;20128;-67
2023/03/04 10:07:14;;;;;;;10.60;2.20;;;7.50;99.90;;;;;;5057062;28;20049;-66
2023/03/04 10:09:46;;;;;;;12.30;2.33;;;7.50;99.90;;;;;;5034703;28;20057;-69
2023/03/04 10:12:15;;;;;;;9.50;1.67;;;7.50;99.90;;;;;;5034415;28;20073;-66
2023/03/04 10:15:00;;;;;;;10.60;1.92;;;7.40;99.90;;;;;;5043911;28;20117;-69
2023/03/04 10:17:38;;;;;;;12.10;2.08;;;7.40;99.90;;;;;;5034150;28;20073;-70
2023/03/04 10:20:28;;;;;;;8.77;2.05;;;7.40;99.90;;;;;;5037716;28;20063;-68
2023/03/04 10:23:01;;;;;;;13.70;2.00;;;7.40;99.90;;;;;;5057675;28;20037;-69
2023/03/04 10:25:29;;;;;;;10.80;1.95;;;7.30;99.90;;;;;;5032024;28;20537;-68
2023/03/04 10:28:01;;;;;;;5.80;1.48;;;7.40;99.90;;;;;;5038524;28;20437;-67
2023/03/04 10:30:35;;;;;;;14.13;2.03;;;7.30;99.90;;;;;;5045789;28;20068;-67
2023/03/04 10:33:01;;;;;;;10.88;2.28;;;7.30;99.90;;;;;;5043244;28;20049;-67
2023/03/04 10:35:33;;;;;;;12.38;1.80;;;7.40;99.90;;;;;;5059208;28;20040;-68
2023/03/04 10:38:01;;;;;;;;;;;7.40;99.90;;;;;;5048013;28;20072;-67
2023/03/04 10:40:26;;;;;;;14.98;2.55;;;7.40;99.90;;;;;;5050582;28;19916;-68
2023/03/04 10:42:53;;;;;;;12.30;2.08;;;7.40;99.90;;;;;;5039539;28;20041;-68
2023/03/04 10:45:24;;;;;;;7.25;1.10;;;7.40;99.90;;;;;;5048134;28;20032;-68
2023/03/04 10:47:54;;;;;;;5.18;1.20;;;7.40;99.90;;;;;;5041670;28;20076;-67
2023/03/04 10:50:24;;;;;;;7.70;1.95;;;7.50;99.90;;;;;;5043586;28;20033;-69
2023/03/04 10:52:52;;;;;;;6.88;1.60;;;7.50;99.90;;;;;;5053952;28;20034;-68
2023/03/04 10:55:29;;;;;;;7.13;1.55;;;7.50;99.90;;;;;;5064034;28;20048;-67
2023/03/04 10:58:05;;;;;;;6.13;1.80;;;7.60;99.90;;;;;;5061532;28;20033;-68
2023/03/04 11:00:33;;;;;;;11.48;2.17;;;7.70;99.90;;;;;;5046561;28;20037;-68
2023/03/04 11:03:26;;;;;;;9.20;1.83;;;7.80;99.90;;;;;;5038355;28;20087;-69
2023/03/04 11:06:22;;;;;;;7.97;1.40;;;7.90;99.90;;;;;;5040261;28;20041;-69
2023/03/04 11:08:56;;;;;;;7.50;1.17;;;7.90;99.90;;;;;;5042704;28;20108;-68
2023/03/04 11:11:36;;;;;;;8.32;1.77;;;7.90;99.90;;;;;;5043809;28;20153;-68
2023/03/04 11:14:14;;;;;;;13.45;2.15;;;7.90;99.90;;;;;;5047588;28;20043;-70
2023/03/04 11:16:39;;;;;;;5.70;0.90;;;7.90;99.90;;;;;;5040480;28;20037;-67
2023/03/04 11:19:13;;;;;;;5.60;0.90;;;7.90;99.90;;;;;;5042699;28;20189;-67
2023/03/04 11:21:40;;;;;;;6.00;1.13;;;7.90;99.90;;;;;;5041843;28;20045;-69
2023/03/04 11:24:14;;;;;;;4.28;1.15;;;8.10;99.90;;;;;;5041821;28;20041;-67
2023/03/04 11:26:53;;;;;;;2.75;0.95;;;8.20;99.90;;;;;;5036601;28;20052;-67
2023/03/04 11:29:32;;;;;;;3.78;0.90;;;8.10;99.90;;;;;;5037685;28;20133;-67
2023/03/04 11:32:26;;;;;;;4.88;1.17;;;8.10;99.90;;;;;;5036162;28;20045;-66
2023/03/04 11:35:13;;;;;;;3.20;0.88;;;8.00;99.90;;;;;;5065690;28;20029;-66
2023/03/04 11:38:07;;;;;;;3.67;0.73;;;8.00;99.90;;;;;;5057406;28;20052;-67
2023/03/04 11:40:43;;;;;;;2.65;1.00;;;7.90;99.90;;;;;;5038452;28;20053;-68
2023/03/04 11:43:18;;;;;;;3.45;1.35;;;7.80;99.90;;;;;;5057656;28;20423;-67
2023/03/04 11:45:43;;;;;;;3.97;0.95;;;7.70;99.90;;;;;;5050197;28;20684;-70
2023/03/04 11:48:24;;;;;;;7.03;1.10;;;7.70;99.90;;;;;;5041430;28;20037;-71
2023/03/04 11:51:02;;;;;;;8.88;1.10;;;7.60;99.90;;;;;;5043574;28;20044;-65
2023/03/04 11:53:55;;;;;;;5.13;1.20;;;7.50;99.90;;;;;;5054967;28;20109;-67
2023/03/04 11:56:20;;;;;;;;;;;7.50;99.90;;;;;;5041894;28;20041;-69
2023/03/04 11:59:13;;;;;;;8.65;1.52;;;7.50;99.90;;;;;;5036818;28;19924;-68
2023/03/04 12:01:57;;;;;;;13.20;1.17;;;7.50;99.90;;;;;;5034385;28;20049;-67
2023/03/04 12:04:29;;;;;;;8.52;1.25;;;7.50;99.90;;;;;;5050678;28;20049;-67
2023/03/04 12:07:09;;;;;;;15.45;1.90;;;7.60;99.90;;;;;;5037881;28;20081;-65
2023/03/04 12:09:51;;;;;;;8.57;1.65;;;7.60;99.90;;;;;;5040117;28;20487;-67
2023/03/04 12:12:28;;;;;;;8.85;1.05;;;7.60;99.90;;;;;;5035262;28;20114;-67
2023/03/04 12:15:13;;;;;;;8.32;1.02;;;7.60;99.90;;;;;;5035908;28;20045;-66
2023/03/04 12:17:50;;;;;;;3.17;0.82;;;7.70;99.90;;;;;;5039402;28;20083;-67
2023/03/04 12:20:39;;;;;;;6.55;1.35;;;7.80;99.90;;;;;;5036990;28;20044;-67
2023/03/04 12:23:23;;;;;;;9.20;1.75;;;7.90;99.90;;;;;;5033147;28;20045;-67
2023/03/04 12:26:09;;;;;;;8.75;1.73;;;8.00;99.90;;;;;;5038148;28;20057;-66
2023/03/04 12:29:16;;;;;;;16.55;2.13;;;8.00;99.90;;;;;;5036180;28;20084;-66
2023/03/04 12:31:44;;;;;;;13.00;2.28;;;7.90;99.90;;;;;;5030419;28;20065;-64
2023/03/04 12:34:42;;;;;;;8.55;1.83;;;7.80;99.90;;;;;;5037498;28;20037;-67
2023/03/04 12:37:13;;;;;;;7.22;1.73;;;7.80;99.90;;;;;;5052078;28;20486;-66
2023/03/04 12:39:47;;;;;;;12.48;2.15;;;7.90;99.90;;;;;;5036520;28;20309;-66
2023/03/04 12:42:37;;;;;;;9.55;1.52;;;8.10;99.90;;;;;;5036207;28;20044;-67
2023/03/04 12:45:15;;;;;;;7.85;1.33;;;8.30;99.90;;;;;;5033114;28;20041;-69
2023/03/04 12:47:51;;;;;;;4.07;1.48;;;8.30;99.90;;;;;;5051459;28;20037;-68
2023/03/04 12:50:29;;;;;;;8.38;2.38;;;8.10;99.90;;;;;;5052729;28;20049;-66
2023/03/04 12:53:10;;;;;;;10.50;1.83;;;8.20;99.90;;;;;;5034561;28;20052;-68
2023/03/04 12:55:38;;;;;;;12.05;2.83;;;8.20;99.90;;;;;;5039523;28;20044;-68
2023/03/04 12:58:05;;;;;;;9.32;1.90;;;8.10;99.90;;;;;;5039299;28;20155;-66
2023/03/04 13:00:49;;;;;;;7.43;1.60;;;8.00;99.90;;;;;;5036782;28;20041;-67
2023/03/04 13:03:26;;;;;;;7.13;1.27;;;8.00;99.90;;;;;;5035778;28;20045;-67